Terminal Aerodrome Forecast
Issued by NWS Wilmington, OH

Home | Current Version | Previous Version | Text Only | Print | Product List | Glossary On
Versions: 1 2 3 4 5 6 7 8 9 10 11 12 13 14 15 16 17 18 19 20 21 22 23 24 25 26 27 28 29 30
000
FTUS41 KILN 011700
TAFDAY
TAF
KDAY 011722Z 0118/0218 14012G20KT 4SM -RA BR OVC025
      TEMPO 0118/0121 2SM RA BR OVC015
     FM012100 15012KT 4SM -RA BR OVC006
     FM020100 21008KT P6SM VCSH OVC006
     FM020600 27015G25KT P6SM VCSH OVC012
     FM021100 33015G25KT P6SM OVC015=

USA.gov is the U.S. government's official web portal to all federal, state and local government web resources and services.